sensor_id;sensor_type;location;lat;lon;timestamp;P1;durP1;ratioP1;P2;durP2;ratioP2
35126;SDS011;21300;52.006;5.798;2023-04-03T00:01:05;2.65;;;1.73;;
35126;SDS011;21300;52.006;5.798;2023-04-03T00:03:31;3.85;;;1.58;;
35126;SDS011;21300;52.006;5.798;2023-04-03T00:05:57;3.28;;;1.52;;
35126;SDS011;21300;52.006;5.798;2023-04-03T00:08:23;4.47;;;1.58;;
35126;SDS011;21300;52.006;5.798;2023-04-03T00:10:49;4.45;;;2.05;;
35126;SDS011;21300;52.006;5.798;2023-04-03T00:13:15;3.38;;;1.45;;
35126;SDS011;21300;52.006;5.798;2023-04-03T00:15:40;5.40;;;1.63;;
35126;SDS011;21300;52.006;5.798;2023-04-03T00:18:07;3.00;;;1.35;;
35126;SDS011;21300;52.006;5.798;2023-04-03T00:20:33;3.78;;;1.50;;
35126;SDS011;21300;52.006;5.798;2023-04-03T00:22:59;4.28;;;1.60;;
35126;SDS011;21300;52.006;5.798;2023-04-03T00:25:25;3.30;;;1.40;;
35126;SDS011;21300;52.006;5.798;2023-04-03T00:27:50;4.20;;;1.63;;
35126;SDS011;21300;52.006;5.798;2023-04-03T00:30:17;4.60;;;1.80;;
35126;SDS011;21300;52.006;5.798;2023-04-03T00:32:45;4.93;;;1.80;;
35126;SDS011;21300;52.006;5.798;2023-04-03T00:35:12;3.97;;;1.40;;
35126;SDS011;21300;52.006;5.798;2023-04-03T00:37:40;4.13;;;1.55;;
35126;SDS011;21300;52.006;5.798;2023-04-03T00:40:06;5.03;;;1.58;;
35126;SDS011;21300;52.006;5.798;2023-04-03T00:42:33;2.70;;;1.30;;
35126;SDS011;21300;52.006;5.798;2023-04-03T00:47:26;2.30;;;1.30;;
35126;SDS011;21300;52.006;5.798;2023-04-03T00:49:52;2.80;;;1.73;;
35126;SDS011;21300;52.006;5.798;2023-04-03T00:52:19;3.40;;;1.50;;
35126;SDS011;21300;52.006;5.798;2023-04-03T00:54:49;2.95;;;1.40;;
35126;SDS011;21300;52.006;5.798;2023-04-03T00:57:17;2.88;;;1.42;;
35126;SDS011;21300;52.006;5.798;2023-04-03T00:59:44;4.60;;;1.60;;
35126;SDS011;21300;52.006;5.798;2023-04-03T01:02:15;4.53;;;1.85;;
35126;SDS011;21300;52.006;5.798;2023-04-03T01:04:41;3.17;;;1.42;;
35126;SDS011;21300;52.006;5.798;2023-04-03T01:07:09;3.17;;;1.60;;
35126;SDS011;21300;52.006;5.798;2023-04-03T01:09:38;3.25;;;1.40;;
35126;SDS011;21300;52.006;5.798;2023-04-03T01:14:43;3.08;;;1.60;;
35126;SDS011;21300;52.006;5.798;2023-04-03T01:17:31;3.45;;;1.38;;
35126;SDS011;21300;52.006;5.798;2023-04-03T01:28:06;4.65;;;1.42;;
35126;SDS011;21300;52.006;5.798;2023-04-03T01:30:34;3.75;;;1.88;;
35126;SDS011;21300;52.006;5.798;2023-04-03T01:33:04;2.50;;;1.40;;
35126;SDS011;21300;52.006;5.798;2023-04-03T01:35:30;3.95;;;1.80;;
35126;SDS011;21300;52.006;5.798;2023-04-03T01:37:55;3.17;;;1.70;;
35126;SDS011;21300;52.006;5.798;2023-04-03T01:40:21;4.72;;;1.52;;
35126;SDS011;21300;52.006;5.798;2023-04-03T01:42:46;4.70;;;1.55;;
35126;SDS011;21300;52.006;5.798;2023-04-03T01:45:12;2.65;;;1.45;;
35126;SDS011;21300;52.006;5.798;2023-04-03T01:47:38;3.45;;;1.48;;
35126;SDS011;21300;52.006;5.798;2023-04-03T01:50:03;4.00;;;1.40;;
35126;SDS011;21300;52.006;5.798;2023-04-03T01:52:29;4.03;;;2.00;;
35126;SDS011;21300;52.006;5.798;2023-04-03T01:54:55;3.17;;;1.58;;
35126;SDS011;21300;52.006;5.798;2023-04-03T01:57:20;4.05;;;1.60;;
35126;SDS011;21300;52.006;5.798;2023-04-03T01:59:46;5.20;;;1.90;;
35126;SDS011;21300;52.006;5.798;2023-04-03T02:02:12;4.85;;;1.60;;
35126;SDS011;21300;52.006;5.798;2023-04-03T02:04:39;4.82;;;1.58;;
35126;SDS011;21300;52.006;5.798;2023-04-03T02:07:05;3.20;;;1.20;;
35126;SDS011;21300;52.006;5.798;2023-04-03T02:09:31;7.30;;;1.80;;
35126;SDS011;21300;52.006;5.798;2023-04-03T02:11:56;3.65;;;1.63;;
35126;SDS011;21300;52.006;5.798;2023-04-03T02:14:22;3.42;;;1.55;;
35126;SDS011;21300;52.006;5.798;2023-04-03T02:16:48;3.45;;;1.77;;
35126;SDS011;21300;52.006;5.798;2023-04-03T02:19:14;4.45;;;1.95;;
35126;SDS011;21300;52.006;5.798;2023-04-03T02:21:40;4.63;;;1.63;;
35126;SDS011;21300;52.006;5.798;2023-04-03T02:24:06;5.97;;;1.70;;
35126;SDS011;21300;52.006;5.798;2023-04-03T02:26:31;4.55;;;1.60;;
35126;SDS011;21300;52.006;5.798;2023-04-03T02:28:57;3.80;;;1.55;;
35126;SDS011;21300;52.006;5.798;2023-04-03T02:31:22;3.50;;;1.50;;
35126;SDS011;21300;52.006;5.798;2023-04-03T02:33:49;4.13;;;1.80;;
35126;SDS011;21300;52.006;5.798;2023-04-03T02:36:15;3.08;;;1.58;;
35126;SDS011;21300;52.006;5.798;2023-04-03T02:38:41;3.92;;;1.52;;
35126;SDS011;21300;52.006;5.798;2023-04-03T02:41:07;3.75;;;1.70;;
35126;SDS011;21300;52.006;5.798;2023-04-03T02:43:35;3.40;;;1.52;;
35126;SDS011;21300;52.006;5.798;2023-04-03T02:46:01;4.88;;;1.55;;
35126;SDS011;21300;52.006;5.798;2023-04-03T02:48:27;5.13;;;1.67;;
35126;SDS011;21300;52.006;5.798;2023-04-03T02:50:52;5.65;;;1.55;;
35126;SDS011;21300;52.006;5.798;2023-04-03T02:53:18;5.82;;;1.63;;
35126;SDS011;21300;52.006;5.798;2023-04-03T02:55:44;4.70;;;1.60;;
35126;SDS011;21300;52.006;5.798;2023-04-03T02:58:10;4.38;;;1.83;;
35126;SDS011;21300;52.006;5.798;2023-04-03T03:00:36;3.95;;;1.52;;
35126;SDS011;21300;52.006;5.798;2023-04-03T03:03:02;5.47;;;2.00;;
35126;SDS011;21300;52.006;5.798;2023-04-03T03:05:28;5.25;;;1.83;;
35126;SDS011;21300;52.006;5.798;2023-04-03T03:07:54;5.00;;;1.55;;
35126;SDS011;21300;52.006;5.798;2023-04-03T03:10:20;3.78;;;1.60;;
35126;SDS011;21300;52.006;5.798;2023-04-03T03:12:46;2.75;;;1.52;;
35126;SDS011;21300;52.006;5.798;2023-04-03T03:15:11;3.25;;;1.50;;
35126;SDS011;21300;52.006;5.798;2023-04-03T03:17:37;4.07;;;1.90;;
35126;SDS011;21300;52.006;5.798;2023-04-03T03:20:04;5.03;;;1.58;;
35126;SDS011;21300;52.006;5.798;2023-04-03T03:22:31;5.03;;;1.67;;
35126;SDS011;21300;52.006;5.798;2023-04-03T03:24:56;5.07;;;1.80;;
35126;SDS011;21300;52.006;5.798;2023-04-03T03:27:22;5.13;;;1.55;;
35126;SDS011;21300;52.006;5.798;2023-04-03T03:29:49;5.70;;;1.83;;
35126;SDS011;21300;52.006;5.798;2023-04-03T03:32:14;3.17;;;1.60;;
35126;SDS011;21300;52.006;5.798;2023-04-03T03:34:40;4.65;;;1.60;;
35126;SDS011;21300;52.006;5.798;2023-04-03T03:37:05;4.30;;;1.73;;
35126;SDS011;21300;52.006;5.798;2023-04-03T03:39:31;5.30;;;1.70;;
35126;SDS011;21300;52.006;5.798;2023-04-03T03:41:57;3.92;;;1.88;;
35126;SDS011;21300;52.006;5.798;2023-04-03T03:44:22;2.67;;;1.55;;
35126;SDS011;21300;52.006;5.798;2023-04-03T03:46:48;4.90;;;1.73;;
35126;SDS011;21300;52.006;5.798;2023-04-03T03:49:13;4.35;;;1.60;;
35126;SDS011;21300;52.006;5.798;2023-04-03T03:51:39;3.38;;;1.80;;
35126;SDS011;21300;52.006;5.798;2023-04-03T03:54:05;4.35;;;1.70;;
35126;SDS011;21300;52.006;5.798;2023-04-03T03:56:32;3.95;;;1.60;;
35126;SDS011;21300;52.006;5.798;2023-04-03T03:58:58;5.15;;;1.60;;
35126;SDS011;21300;52.006;5.798;2023-04-03T04:01:23;4.05;;;1.77;;
35126;SDS011;21300;52.006;5.798;2023-04-03T04:03:49;3.53;;;1.80;;
35126;SDS011;21300;52.006;5.798;2023-04-03T04:06:15;5.13;;;1.88;;
35126;SDS011;21300;52.006;5.798;2023-04-03T04:08:41;2.97;;;1.65;;
35126;SDS011;21300;52.006;5.798;2023-04-03T04:11:07;5.05;;;1.90;;
35126;SDS011;21300;52.006;5.798;2023-04-03T04:13:34;5.40;;;1.90;;
35126;SDS011;21300;52.006;5.798;2023-04-03T04:15:59;4.03;;;1.60;;
35126;SDS011;21300;52.006;5.798;2023-04-03T04:18:25;6.38;;;1.85;;
35126;SDS011;21300;52.006;5.798;2023-04-03T04:20:51;4.93;;;1.80;;
35126;SDS011;21300;52.006;5.798;2023-04-03T04:23:17;7.60;;;2.08;;
35126;SDS011;21300;52.006;5.798;2023-04-03T04:25:46;6.75;;;1.60;;
35126;SDS011;21300;52.006;5.798;2023-04-03T04:28:13;2.65;;;1.50;;
35126;SDS011;21300;52.006;5.798;2023-04-03T04:30:39;5.22;;;1.95;;
35126;SDS011;21300;52.006;5.798;2023-04-03T04:33:05;4.60;;;1.60;;
35126;SDS011;21300;52.006;5.798;2023-04-03T04:35:31;3.88;;;1.75;;
35126;SDS011;21300;52.006;5.798;2023-04-03T04:37:57;4.60;;;2.00;;
35126;SDS011;21300;52.006;5.798;2023-04-03T04:40:23;5.40;;;1.63;;
35126;SDS011;21300;52.006;5.798;2023-04-03T04:42:49;4.65;;;2.10;;
35126;SDS011;21300;52.006;5.798;2023-04-03T04:45:14;4.72;;;2.05;;
35126;SDS011;21300;52.006;5.798;2023-04-03T04:47:40;4.95;;;1.77;;
35126;SDS011;21300;52.006;5.798;2023-04-03T04:50:06;4.75;;;2.10;;
35126;SDS011;21300;52.006;5.798;2023-04-03T04:52:32;5.55;;;1.63;;
35126;SDS011;21300;52.006;5.798;2023-04-03T04:54:58;4.82;;;1.98;;
35126;SDS011;21300;52.006;5.798;2023-04-03T04:57:23;4.78;;;1.70;;
35126;SDS011;21300;52.006;5.798;2023-04-03T04:59:49;4.88;;;2.20;;
35126;SDS011;21300;52.006;5.798;2023-04-03T05:02:15;5.68;;;2.20;;
35126;SDS011;21300;52.006;5.798;2023-04-03T05:04:40;4.22;;;1.90;;
35126;SDS011;21300;52.006;5.798;2023-04-03T05:07:06;5.38;;;2.08;;
35126;SDS011;21300;52.006;5.798;2023-04-03T05:09:32;4.05;;;1.92;;
35126;SDS011;21300;52.006;5.798;2023-04-03T05:11:57;6.75;;;2.08;;
35126;SDS011;21300;52.006;5.798;2023-04-03T05:14:23;5.93;;;1.80;;
35126;SDS011;21300;52.006;5.798;2023-04-03T05:16:49;3.25;;;1.77;;
35126;SDS011;21300;52.006;5.798;2023-04-03T05:19:17;4.80;;;1.80;;
35126;SDS011;21300;52.006;5.798;2023-04-03T05:21:43;5.28;;;1.98;;
35126;SDS011;21300;52.006;5.798;2023-04-03T05:24:09;7.95;;;2.25;;
35126;SDS011;21300;52.006;5.798;2023-04-03T05:26:35;3.78;;;1.90;;
35126;SDS011;21300;52.006;5.798;2023-04-03T05:29:00;6.07;;;2.13;;
35126;SDS011;21300;52.006;5.798;2023-04-03T05:31:26;4.90;;;2.17;;
35126;SDS011;21300;52.006;5.798;2023-04-03T05:33:54;7.50;;;2.75;;
35126;SDS011;21300;52.006;5.798;2023-04-03T05:36:20;8.23;;;2.10;;
35126;SDS011;21300;52.006;5.798;2023-04-03T05:38:46;6.72;;;2.30;;
35126;SDS011;21300;52.006;5.798;2023-04-03T05:41:12;5.30;;;2.17;;
35126;SDS011;21300;52.006;5.798;2023-04-03T05:43:38;6.38;;;2.50;;
35126;SDS011;21300;52.006;5.798;2023-04-03T05:46:04;5.13;;;2.10;;
35126;SDS011;21300;52.006;5.798;2023-04-03T05:48:36;5.55;;;2.70;;
35126;SDS011;21300;52.006;5.798;2023-04-03T05:51:02;7.32;;;2.42;;
35126;SDS011;21300;52.006;5.798;2023-04-03T05:53:28;6.05;;;2.28;;
35126;SDS011;21300;52.006;5.798;2023-04-03T05:55:56;8.18;;;3.03;;
35126;SDS011;21300;52.006;5.798;2023-04-03T05:58:21;3.92;;;2.05;;
35126;SDS011;21300;52.006;5.798;2023-04-03T06:00:47;5.13;;;2.17;;
35126;SDS011;21300;52.006;5.798;2023-04-03T06:03:13;6.68;;;2.70;;
35126;SDS011;21300;52.006;5.798;2023-04-03T06:05:39;9.63;;;2.92;;
35126;SDS011;21300;52.006;5.798;2023-04-03T06:08:04;5.70;;;2.35;;
35126;SDS011;21300;52.006;5.798;2023-04-03T06:10:30;5.47;;;2.30;;
35126;SDS011;21300;52.006;5.798;2023-04-03T06:12:56;4.30;;;2.40;;
35126;SDS011;21300;52.006;5.798;2023-04-03T06:15:21;4.93;;;2.15;;
35126;SDS011;21300;52.006;5.798;2023-04-03T06:17:47;5.72;;;2.25;;
35126;SDS011;21300;52.006;5.798;2023-04-03T06:20:13;4.90;;;2.13;;
35126;SDS011;21300;52.006;5.798;2023-04-03T06:22:39;6.38;;;2.05;;
35126;SDS011;21300;52.006;5.798;2023-04-03T06:25:06;9.88;;;2.58;;
35126;SDS011;21300;52.006;5.798;2023-04-03T06:27:32;5.65;;;1.80;;
35126;SDS011;21300;52.006;5.798;2023-04-03T06:29:58;8.70;;;2.38;;
35126;SDS011;21300;52.006;5.798;2023-04-03T06:32:24;7.75;;;2.10;;
35126;SDS011;21300;52.006;5.798;2023-04-03T06:34:50;8.90;;;2.22;;
35126;SDS011;21300;52.006;5.798;2023-04-03T06:37:19;9.32;;;2.47;;
35126;SDS011;21300;52.006;5.798;2023-04-03T06:39:46;8.48;;;2.50;;
35126;SDS011;21300;52.006;5.798;2023-04-03T06:42:12;5.88;;;2.00;;
35126;SDS011;21300;52.006;5.798;2023-04-03T06:44:38;3.45;;;1.77;;
35126;SDS011;21300;52.006;5.798;2023-04-03T06:47:04;8.63;;;2.30;;
35126;SDS011;21300;52.006;5.798;2023-04-03T06:49:29;5.20;;;2.17;;
35126;SDS011;21300;52.006;5.798;2023-04-03T06:51:55;4.90;;;1.80;;
35126;SDS011;21300;52.006;5.798;2023-04-03T06:54:21;4.20;;;2.00;;
35126;SDS011;21300;52.006;5.798;2023-04-03T06:56:47;8.80;;;1.95;;
35126;SDS011;21300;52.006;5.798;2023-04-03T06:59:13;5.43;;;1.75;;
35126;SDS011;21300;52.006;5.798;2023-04-03T07:01:40;9.73;;;2.33;;
35126;SDS011;21300;52.006;5.798;2023-04-03T07:04:07;5.95;;;1.90;;
35126;SDS011;21300;52.006;5.798;2023-04-03T07:06:33;7.28;;;2.10;;
35126;SDS011;21300;52.006;5.798;2023-04-03T07:09:00;6.85;;;2.58;;
35126;SDS011;21300;52.006;5.798;2023-04-03T07:11:26;6.13;;;1.95;;
35126;SDS011;21300;52.006;5.798;2023-04-03T07:13:52;5.07;;;2.10;;
35126;SDS011;21300;52.006;5.798;2023-04-03T07:16:18;11.25;;;2.72;;
35126;SDS011;21300;52.006;5.798;2023-04-03T07:18:44;9.52;;;2.10;;
35126;SDS011;21300;52.006;5.798;2023-04-03T07:21:10;5.97;;;1.60;;
35126;SDS011;21300;52.006;5.798;2023-04-03T07:23:36;7.00;;;2.33;;
35126;SDS011;21300;52.006;5.798;2023-04-03T07:26:02;4.20;;;1.85;;
35126;SDS011;21300;52.006;5.798;2023-04-03T07:28:28;5.30;;;2.03;;
35126;SDS011;21300;52.006;5.798;2023-04-03T07:31:00;5.32;;;1.73;;
35126;SDS011;21300;52.006;5.798;2023-04-03T07:33:28;6.07;;;1.85;;
35126;SDS011;21300;52.006;5.798;2023-04-03T07:35:54;6.20;;;1.70;;
35126;SDS011;21300;52.006;5.798;2023-04-03T07:38:20;7.35;;;2.20;;
35126;SDS011;21300;52.006;5.798;2023-04-03T07:40:46;6.90;;;1.90;;
35126;SDS011;21300;52.006;5.798;2023-04-03T07:43:13;4.05;;;1.88;;
35126;SDS011;21300;52.006;5.798;2023-04-03T07:45:39;5.53;;;1.88;;
35126;SDS011;21300;52.006;5.798;2023-04-03T07:48:07;5.68;;;1.77;;
35126;SDS011;21300;52.006;5.798;2023-04-03T07:50:32;3.60;;;1.90;;
35126;SDS011;21300;52.006;5.798;2023-04-03T07:52:58;4.05;;;1.60;;
35126;SDS011;21300;52.006;5.798;2023-04-03T07:55:24;5.82;;;1.45;;
35126;SDS011;21300;52.006;5.798;2023-04-03T07:57:50;5.38;;;1.50;;
35126;SDS011;21300;52.006;5.798;2023-04-03T08:00:16;4.78;;;1.50;;
35126;SDS011;21300;52.006;5.798;2023-04-03T08:02:42;3.83;;;1.60;;
35126;SDS011;21300;52.006;5.798;2023-04-03T08:05:09;4.35;;;1.67;;
35126;SDS011;21300;52.006;5.798;2023-04-03T08:07:36;5.93;;;1.75;;
35126;SDS011;21300;52.006;5.798;2023-04-03T08:10:02;3.72;;;1.40;;
35126;SDS011;21300;52.006;5.798;2023-04-03T08:12:28;5.72;;;1.52;;
35126;SDS011;21300;52.006;5.798;2023-04-03T08:14:54;4.40;;;1.63;;
35126;SDS011;21300;52.006;5.798;2023-04-03T08:17:20;4.10;;;1.67;;
35126;SDS011;21300;52.006;5.798;2023-04-03T08:19:46;3.92;;;1.30;;
35126;SDS011;21300;52.006;5.798;2023-04-03T08:22:12;2.97;;;1.05;;
35126;SDS011;21300;52.006;5.798;2023-04-03T08:24:38;3.83;;;1.13;;
35126;SDS011;21300;52.006;5.798;2023-04-03T08:27:03;3.75;;;1.15;;
35126;SDS011;21300;52.006;5.798;2023-04-03T08:29:29;6.85;;;1.23;;
35126;SDS011;21300;52.006;5.798;2023-04-03T08:31:55;2.08;;;0.90;;
35126;SDS011;21300;52.006;5.798;2023-04-03T08:34:20;2.20;;;1.10;;
35126;SDS011;21300;52.006;5.798;2023-04-03T08:36:46;4.82;;;1.13;;
35126;SDS011;21300;52.006;5.798;2023-04-03T08:39:12;2.70;;;0.90;;
35126;SDS011;21300;52.006;5.798;2023-04-03T08:41:38;5.70;;;1.10;;
35126;SDS011;21300;52.006;5.798;2023-04-03T08:49:43;1.25;;;0.63;;
35126;SDS011;21300;52.006;5.798;2023-04-03T08:52:39;3.65;;;0.93;;
35126;SDS011;21300;52.006;5.798;2023-04-03T08:55:19;1.92;;;0.57;;
35126;SDS011;21300;52.006;5.798;2023-04-03T08:58:05;2.00;;;0.52;;
35126;SDS011;21300;52.006;5.798;2023-04-03T09:00:48;1.65;;;0.73;;
35126;SDS011;21300;52.006;5.798;2023-04-03T09:03:29;2.83;;;0.65;;
35126;SDS011;21300;52.006;5.798;2023-04-03T09:06:02;1.45;;;0.70;;
35126;SDS011;21300;52.006;5.798;2023-04-03T09:08:37;1.70;;;0.50;;
35126;SDS011;21300;52.006;5.798;2023-04-03T09:11:24;1.83;;;0.60;;
35126;SDS011;21300;52.006;5.798;2023-04-03T09:13:57;3.88;;;0.68;;
35126;SDS011;21300;52.006;5.798;2023-04-03T09:19:08;2.40;;;0.50;;
35126;SDS011;21300;52.006;5.798;2023-04-03T09:21:39;1.52;;;0.52;;
35126;SDS011;21300;52.006;5.798;2023-04-03T09:24:09;1.52;;;0.52;;
35126;SDS011;21300;52.006;5.798;2023-04-03T09:26:42;0.57;;;0.40;;
35126;SDS011;21300;52.006;5.798;2023-04-03T09:29:14;1.70;;;0.50;;
35126;SDS011;21300;52.006;5.798;2023-04-03T09:31:43;1.95;;;0.40;;
35126;SDS011;21300;52.006;5.798;2023-04-03T09:36:44;1.20;;;0.40;;
35126;SDS011;21300;52.006;5.798;2023-04-03T09:39:12;1.52;;;0.30;;
35126;SDS011;21300;52.006;5.798;2023-04-03T09:41:40;0.60;;;0.40;;
35126;SDS011;21300;52.006;5.798;2023-04-03T09:44:18;0.35;;;0.30;;
35126;SDS011;21300;52.006;5.798;2023-04-03T09:46:47;1.13;;;0.50;;
35126;SDS011;21300;52.006;5.798;2023-04-03T09:49:12;1.25;;;0.50;;
35126;SDS011;21300;52.006;5.798;2023-04-03T09:51:38;0.70;;;0.40;;
35126;SDS011;21300;52.006;5.798;2023-04-03T09:57:02;1.48;;;0.50;;
35126;SDS011;21300;52.006;5.798;2023-04-03T09:59:32;0.80;;;0.60;;
35126;SDS011;21300;52.006;5.798;2023-04-03T10:01:58;2.83;;;1.10;;
35126;SDS011;21300;52.006;5.798;2023-04-03T10:04:36;1.05;;;0.40;;
35126;SDS011;21300;52.006;5.798;2023-04-03T10:07:03;0.77;;;0.40;;
35126;SDS011;21300;52.006;5.798;2023-04-03T10:10:01;1.23;;;0.50;;
35126;SDS011;21300;52.006;5.798;2023-04-03T10:12:40;0.90;;;0.50;;
35126;SDS011;21300;52.006;5.798;2023-04-03T10:15:15;0.77;;;0.45;;
35126;SDS011;21300;52.006;5.798;2023-04-03T10:18:02;2.30;;;0.70;;
35126;SDS011;21300;52.006;5.798;2023-04-03T10:20:47;1.67;;;0.50;;
35126;SDS011;21300;52.006;5.798;2023-04-03T10:25:55;1.25;;;0.70;;
35126;SDS011;21300;52.006;5.798;2023-04-03T10:28:53;1.25;;;0.45;;
35126;SDS011;21300;52.006;5.798;2023-04-03T10:31:42;5.80;;;0.90;;
35126;SDS011;21300;52.006;5.798;2023-04-03T10:34:33;1.63;;;0.70;;
35126;SDS011;21300;52.006;5.798;2023-04-03T10:37:17;1.45;;;0.70;;
35126;SDS011;21300;52.006;5.798;2023-04-03T10:45:30;3.63;;;0.73;;
35126;SDS011;21300;52.006;5.798;2023-04-03T10:48:16;1.52;;;0.85;;
35126;SDS011;21300;52.006;5.798;2023-04-03T10:51:01;2.20;;;0.80;;
35126;SDS011;21300;52.006;5.798;2023-04-03T10:53:50;2.40;;;0.90;;
35126;SDS011;21300;52.006;5.798;2023-04-03T10:58:54;2.40;;;0.70;;
35126;SDS011;21300;52.006;5.798;2023-04-03T11:01:27;2.05;;;0.80;;
35126;SDS011;21300;52.006;5.798;2023-04-03T11:03:57;2.38;;;0.80;;
35126;SDS011;21300;52.006;5.798;2023-04-03T11:06:26;2.92;;;0.68;;
35126;SDS011;21300;52.006;5.798;2023-04-03T11:09:11;2.75;;;0.77;;
35126;SDS011;21300;52.006;5.798;2023-04-03T11:11:41;1.90;;;0.77;;
35126;SDS011;21300;52.006;5.798;2023-04-03T11:14:13;2.80;;;0.50;;
35126;SDS011;21300;52.006;5.798;2023-04-03T11:16:47;1.92;;;0.65;;
35126;SDS011;21300;52.006;5.798;2023-04-03T11:19:20;2.10;;;0.80;;
35126;SDS011;21300;52.006;5.798;2023-04-03T11:24:24;1.10;;;0.50;;
35126;SDS011;21300;52.006;5.798;2023-04-03T11:26:52;1.50;;;0.70;;
35126;SDS011;21300;52.006;5.798;2023-04-03T11:29:22;1.85;;;0.73;;
35126;SDS011;21300;52.006;5.798;2023-04-03T11:34:48;2.58;;;0.80;;
35126;SDS011;21300;52.006;5.798;2023-04-03T11:37:28;1.98;;;0.57;;
35126;SDS011;21300;52.006;5.798;2023-04-03T11:40:02;1.52;;;0.98;;
35126;SDS011;21300;52.006;5.798;2023-04-03T11:42:34;2.55;;;0.80;;
35126;SDS011;21300;52.006;5.798;2023-04-03T11:47:48;3.25;;;1.08;;
35126;SDS011;21300;52.006;5.798;2023-04-03T11:53:41;2.50;;;0.63;;
35126;SDS011;21300;52.006;5.798;2023-04-03T11:55:58;1.95;;;0.68;;
35126;SDS011;21300;52.006;5.798;2023-04-03T11:58:26;3.28;;;0.90;;
35126;SDS011;21300;52.006;5.798;2023-04-03T12:13:40;2.67;;;0.90;;
35126;SDS011;21300;52.006;5.798;2023-04-03T12:16:21;3.03;;;0.70;;
35126;SDS011;21300;52.006;5.798;2023-04-03T12:18:57;3.85;;;0.88;;
35126;SDS011;21300;52.006;5.798;2023-04-03T12:48:25;1.70;;;0.70;;
35126;SDS011;21300;52.006;5.798;2023-04-03T12:50:52;1.65;;;0.90;;
35126;SDS011;21300;52.006;5.798;2023-04-03T12:53:19;3.40;;;0.82;;
35126;SDS011;21300;52.006;5.798;2023-04-03T12:55:56;2.28;;;0.80;;
35126;SDS011;21300;52.006;5.798;2023-04-03T12:58:23;1.42;;;0.80;;
35126;SDS011;21300;52.006;5.798;2023-04-03T13:01:01;2.42;;;0.88;;
35126;SDS011;21300;52.006;5.798;2023-04-03T13:03:33;3.03;;;0.88;;
35126;SDS011;21300;52.006;5.798;2023-04-03T13:06:01;3.78;;;1.00;;
35126;SDS011;21300;52.006;5.798;2023-04-03T13:08:28;3.33;;;0.85;;
35126;SDS011;21300;52.006;5.798;2023-04-03T13:11:03;4.18;;;1.10;;
35126;SDS011;21300;52.006;5.798;2023-04-03T13:13:32;3.15;;;1.00;;
35126;SDS011;21300;52.006;5.798;2023-04-03T13:15:58;3.10;;;1.33;;
35126;SDS011;21300;52.006;5.798;2023-04-03T13:18:26;3.50;;;1.00;;
35126;SDS011;21300;52.006;5.798;2023-04-03T13:20:59;2.45;;;0.93;;
35126;SDS011;21300;52.006;5.798;2023-04-03T13:23:26;2.92;;;0.90;;
35126;SDS011;21300;52.006;5.798;2023-04-03T13:25:52;3.78;;;1.08;;
35126;SDS011;21300;52.006;5.798;2023-04-03T13:28:22;1.88;;;0.70;;
35126;SDS011;21300;52.006;5.798;2023-04-03T13:30:57;1.92;;;0.85;;
35126;SDS011;21300;52.006;5.798;2023-04-03T13:33:25;4.43;;;0.90;;
35126;SDS011;21300;52.006;5.798;2023-04-03T13:35:59;2.70;;;1.08;;
35126;SDS011;21300;52.006;5.798;2023-04-03T13:38:30;4.55;;;0.90;;
35126;SDS011;21300;52.006;5.798;2023-04-03T13:40:58;2.65;;;1.00;;
35126;SDS011;21300;52.006;5.798;2023-04-03T13:43:32;2.47;;;1.10;;
35126;SDS011;21300;52.006;5.798;2023-04-03T13:46:20;1.95;;;0.98;;
35126;SDS011;21300;52.006;5.798;2023-04-03T13:48:50;5.65;;;1.17;;
35126;SDS011;21300;52.006;5.798;2023-04-03T13:51:19;3.00;;;0.93;;
35126;SDS011;21300;52.006;5.798;2023-04-03T13:53:50;2.58;;;1.33;;
35126;SDS011;21300;52.006;5.798;2023-04-03T13:58:55;2.88;;;1.23;;
35126;SDS011;21300;52.006;5.798;2023-04-03T14:01:24;3.42;;;0.85;;
35126;SDS011;21300;52.006;5.798;2023-04-03T14:03:58;2.47;;;1.05;;
35126;SDS011;21300;52.006;5.798;2023-04-03T14:06:26;3.90;;;1.40;;
35126;SDS011;21300;52.006;5.798;2023-04-03T14:08:52;3.70;;;1.13;;
35126;SDS011;21300;52.006;5.798;2023-04-03T14:11:20;2.47;;;1.20;;
35126;SDS011;21300;52.006;5.798;2023-04-03T14:13:49;2.55;;;0.80;;
35126;SDS011;21300;52.006;5.798;2023-04-03T14:16:15;2.92;;;1.30;;
35126;SDS011;21300;52.006;5.798;2023-04-03T14:18:47;2.38;;;1.00;;
35126;SDS011;21300;52.006;5.798;2023-04-03T14:21:16;4.43;;;1.10;;
35126;SDS011;21300;52.006;5.798;2023-04-03T14:23:43;2.60;;;1.02;;
35126;SDS011;21300;52.006;5.798;2023-04-03T14:26:13;5.40;;;1.20;;
35126;SDS011;21300;52.006;5.798;2023-04-03T14:28:41;4.60;;;1.42;;
35126;SDS011;21300;52.006;5.798;2023-04-03T14:31:08;2.42;;;1.25;;
35126;SDS011;21300;52.006;5.798;2023-04-03T14:33:36;3.50;;;1.20;;
35126;SDS011;21300;52.006;5.798;2023-04-03T14:36:10;3.85;;;1.23;;
35126;SDS011;21300;52.006;5.798;2023-04-03T14:38:38;3.88;;;1.25;;
35126;SDS011;21300;52.006;5.798;2023-04-03T14:41:04;4.13;;;1.30;;
35126;SDS011;21300;52.006;5.798;2023-04-03T14:43:30;4.10;;;1.25;;
35126;SDS011;21300;52.006;5.798;2023-04-03T14:45:55;3.83;;;1.10;;
35126;SDS011;21300;52.006;5.798;2023-04-03T14:48:22;3.17;;;1.35;;
35126;SDS011;21300;52.006;5.798;2023-04-03T14:50:51;4.88;;;1.40;;
35126;SDS011;21300;52.006;5.798;2023-04-03T14:53:17;3.28;;;1.40;;
35126;SDS011;21300;52.006;5.798;2023-04-03T14:55:47;2.90;;;1.20;;
35126;SDS011;21300;52.006;5.798;2023-04-03T14:58:14;3.22;;;1.00;;
35126;SDS011;21300;52.006;5.798;2023-04-03T15:00:42;3.92;;;1.05;;
35126;SDS011;21300;52.006;5.798;2023-04-03T15:03:13;4.28;;;1.38;;
35126;SDS011;21300;52.006;5.798;2023-04-03T15:05:45;4.15;;;1.42;;
35126;SDS011;21300;52.006;5.798;2023-04-03T15:08:27;7.40;;;1.75;;
35126;SDS011;21300;52.006;5.798;2023-04-03T15:10:56;4.55;;;1.05;;
35126;SDS011;21300;52.006;5.798;2023-04-03T15:13:23;6.32;;;1.40;;
35126;SDS011;21300;52.006;5.798;2023-04-03T15:15:49;2.53;;;1.30;;
35126;SDS011;21300;52.006;5.798;2023-04-03T15:18:17;4.30;;;1.40;;
35126;SDS011;21300;52.006;5.798;2023-04-03T15:20:45;2.70;;;1.25;;
35126;SDS011;21300;52.006;5.798;2023-04-03T15:23:12;4.35;;;1.35;;
35126;SDS011;21300;52.006;5.798;2023-04-03T15:25:40;4.80;;;1.40;;
35126;SDS011;21300;52.006;5.798;2023-04-03T15:28:08;3.83;;;1.30;;
35126;SDS011;21300;52.006;5.798;2023-04-03T15:30:40;4.68;;;1.33;;
35126;SDS011;21300;52.006;5.798;2023-04-03T15:33:06;3.88;;;1.20;;
35126;SDS011;21300;52.006;5.798;2023-04-03T15:35:31;4.47;;;1.52;;
35126;SDS011;21300;52.006;5.798;2023-04-03T15:37:57;4.45;;;1.30;;
35126;SDS011;21300;52.006;5.798;2023-04-03T15:40:22;3.05;;;1.20;;
35126;SDS011;21300;52.006;5.798;2023-04-03T15:42:48;5.05;;;1.40;;
35126;SDS011;21300;52.006;5.798;2023-04-03T15:45:14;2.53;;;1.10;;
35126;SDS011;21300;52.006;5.798;2023-04-03T15:47:39;3.45;;;1.42;;
35126;SDS011;21300;52.006;5.798;2023-04-03T15:50:05;3.65;;;1.20;;
35126;SDS011;21300;52.006;5.798;2023-04-03T15:52:32;1.95;;;0.80;;
35126;SDS011;21300;52.006;5.798;2023-04-03T15:54:58;6.22;;;1.45;;
35126;SDS011;21300;52.006;5.798;2023-04-03T15:57:24;5.05;;;1.73;;
35126;SDS011;21300;52.006;5.798;2023-04-03T15:59:51;4.63;;;1.38;;
35126;SDS011;21300;52.006;5.798;2023-04-03T16:02:17;2.92;;;1.20;;
35126;SDS011;21300;52.006;5.798;2023-04-03T16:04:43;2.63;;;1.13;;
35126;SDS011;21300;52.006;5.798;2023-04-03T16:07:08;3.55;;;1.38;;
35126;SDS011;21300;52.006;5.798;2023-04-03T16:09:34;3.65;;;1.25;;
35126;SDS011;21300;52.006;5.798;2023-04-03T16:12:01;3.75;;;1.20;;
35126;SDS011;21300;52.006;5.798;2023-04-03T16:14:27;4.57;;;1.50;;
35126;SDS011;21300;52.006;5.798;2023-04-03T16:16:54;6.72;;;1.60;;
35126;SDS011;21300;52.006;5.798;2023-04-03T16:19:21;6.22;;;1.25;;
35126;SDS011;21300;52.006;5.798;2023-04-03T16:21:46;3.38;;;1.23;;
35126;SDS011;21300;52.006;5.798;2023-04-03T16:24:12;3.78;;;1.08;;
35126;SDS011;21300;52.006;5.798;2023-04-03T16:26:38;7.30;;;1.55;;